Nearby METAR Reports

 

KDVT - Phoenix/Deer Vly, Arizona, USA
Distance from station: SSE 14mi, 22km
Updated: 06/23/2018 7:53pm
Clear
Clear
 Wind from WSW
Wind: WSW 13 mph , 20 km/h
Temperature: 100°F , 38°C
Dew Point: 43°F , 6°C
Humidity: 14%
Barometer: 29.70 inHg , 1005.8 hPa
Clouds: Clear
Visibility: 10 miles , 16 km
2018/06/24 02:53 KDVT 240253Z AUTO 24011KT 10SM CLR 38/06 A2970 RMK AO2 SLP027 T03780056 53001
KSDL - Scottsdale, Arizona, USA
Distance from station: SE 22mi, 35km
Updated: 06/23/2018 6:53pm
Clear
Clear
 Wind from W
Wind: W 8 mph , 13 km/h
Temperature: 102°F , 39°C
Dew Point: 45°F , 7°C
Humidity: 14%
Barometer: 29.71 inHg , 1006.1 hPa
Clouds: Clear
Visibility: 10 miles , 16 km
2018/06/24 01:53 KSDL 240153Z 26007KT 10SM CLR 39/07 A2971 RMK AO2 SLP028 T03940072
 
KGEU - Glendale, Arizona, USA
Distance from station: SSW 25mi, 41km
Updated: 06/23/2018 5:47pm
NOT Current
Clear
Clear
 Wind from S
Wind: S 139 mph , 224 km/h
Temperature: 108°F , 42°C
Dew Point: 45°F , 7°C
Humidity: 12%
Barometer: 29.68 inHg , 1005.1 hPa
Clouds: Clear
Visibility: 10 miles , 16 km
2018/06/24 00:47 KGEU 240047Z 1801217KT 10SM SKC 42/07 A2968 RMK LAST
KLUF - Luke Afb/Glendal, Arizona, USA
Distance from station: SSW 28mi, 45km
Updated: 06/23/2018 6:58pm
Clear
Clear
 Wind from WSW
Wind: WSW 15 mph , 24 km/h
Temperature: 104°F , 40°C
Dew Point: 45°F , 7°C
Humidity: 13%
Barometer: 29.65 inHg , 1004.1 hPa
Clouds: Clear
Visibility: 10 miles , 16 km
2018/06/24 01:58 KLUF 240158Z AUTO 24013KT 10SM CLR 40/07 A2965 RMK AO2 SLP024 T03970072 $
 
KPHX - Phoenix/Sky Hrbr, Arizona, USA
Distance from station: SSE 31mi, 51km
Updated: 06/23/2018 7:51pm
Few Clouds
Few Clouds
 Wind from W
Wind: W 20 mph , 31 km/h
Temperature: 102°F , 39°C
Dew Point: 45°F , 7°C
Humidity: 14%
Barometer: 29.66 inHg , 1004.4 hPa
Clouds: Few Clouds
Visibility: 10 miles , 16 km
Cloud details: Few Clouds 25000 ft
2018/06/24 02:51 KPHX 240251Z 28017KT 10SM FEW250 39/07 A2966 RMK AO2 SLP022 T03940072 53001 $
KGYR - Goodyear Municip, Arizona, USA
Distance from station: SSW 34mi, 55km
Updated: 06/23/2018 7:47pm
Clear
Clear
 Wind from SW
Wind: SW 13 mph , 20 km/h
Temperature: 99°F , 37°C
Dew Point: 52°F , 11°C
Humidity: 21%
Barometer: 29.68 inHg , 1005.1 hPa
Clouds: Clear
Visibility: 10 miles , 16 km
2018/06/24 02:47 KGYR 240247Z 22011KT 10SM SKC 37/11 A2968
 
KFFZ - Mesa/Falcon Fld, Arizona, USA
Distance from station: SE 37mi, 60km
Updated: 06/23/2018 7:47pm
Clear
Clear
 Wind from WNW
Wind: WNW 12 mph , 19 km/h
Temperature: 100°F , 38°C
Dew Point: 48°F , 9°C
Humidity: 17%
Barometer: 29.70 inHg , 1005.8 hPa
Clouds: Clear
Visibility: 40 miles , 64 km
2018/06/24 02:47 KFFZ 240247Z 29010KT 40SM SKC 38/09 A2970
KBXK - Buckeye, Arizona, USA
Distance from station: SW 45mi, 72km
Updated: 06/23/2018 7:35pm
Clear
Clear
 Wind from WSW
Wind: WSW 14 mph , 22 km/h, Gust: 20 mph , 31 km/h
Temperature: 99°F , 37°C
Dew Point: 45°F , 7°C
Humidity: 16%
Barometer: 29.69 inHg , 1005.4 hPa
Clouds: Clear
Visibility: 10 miles , 16 km
2018/06/24 02:35 KBXK 240235Z AUTO 24012G17KT 10SM CLR 37/07 A2969 RMK AO1
 
KIWA - Chandler/Mesa, Arizona, USA
Distance from station: SE 49mi, 78km
Updated: 06/23/2018 7:47pm
Clear
Clear
 Wind from NW
Wind: NW 8 mph , 13 km/h
Temperature: 100°F , 38°C
Dew Point: 43°F , 6°C
Humidity: 14%
Barometer: 29.70 inHg , 1005.8 hPa
Clouds: Clear
Visibility: 20 miles , 32 km
2018/06/24 02:47 KIWA 240247Z 32007KT 20SM SKC 38/06 A2970
KPAN - Payson, Arizona, USA
Distance from station: ENE 53mi, 85km
Updated: 06/23/2018 7:35pm
Clear
Clear
 Wind from SW
Wind: SW 9 mph , 15 km/h, Gust: 16 mph , 26 km/h
Temperature: 82°F , 28°C
Dew Point: 37°F , 3°C
Humidity: 20%
Barometer: 30.02 inHg , 1016.6 hPa
Clouds: Clear
Visibility: 10 miles , 16 km
2018/06/24 02:35 KPAN 240235Z AUTO 23008G14KT 10SM CLR 28/03 A3002 RMK AO2
 
KPRC - Prescott, Arizona, USA
Distance from station: NNW 56mi, 90km
Updated: 06/23/2018 6:53pm
Clear
Clear
 Wind from WSW
Wind: WSW 16 mph , 26 km/h
Temperature: 86°F , 30°C
Dew Point: 30°F , -1°C
Humidity: 13%
Barometer: 29.99 inHg , 1015.6 hPa
Clouds: Clear
Visibility: 10 miles , 16 km
2018/06/24 01:53 KPRC 240153Z 25014KT 10SM CLR 30/M01 A2999 RMK AO2 SLP059 T03001006
KCGZ - Casa Granda, Arizona, USA
Distance from station: SSE 67mi, 109km
Updated: 06/23/2018 6:56pm
Clear
Clear
 Wind from SSW
Wind: SSW 9 mph , 15 km/h
Temperature: 104°F , 40°C
Dew Point: 43°F , 6°C
Humidity: 12%
Barometer: 29.70 inHg , 1005.8 hPa
Clouds: Clear
Visibility: 10 miles , 16 km
2018/06/24 01:56 KCGZ 240156Z AUTO 21008KT 10SM CLR 40/06 A2970 RMK AO2 SLP037 T04000061 PNO $
 
KSEZ - Sedona, Arizona, USA
Distance from station: NNE 70mi, 113km
Updated: 06/23/2018 7:35pm
Clear
Clear
 Wind from S
Wind: S 12 mph , 19 km/h, Gust: 21 mph , 33 km/h
Temperature: 86°F , 30°C
Dew Point: 32°F , 0°C
Humidity: 14%
Barometer: 29.97 inHg , 1014.9 hPa
Clouds: Clear
Visibility: 10 miles , 16 km
2018/06/24 02:35 KSEZ 240235Z AUTO 18010G18KT 10SM CLR 30/00 A2997 RMK AO2
KGXF - Gila Bend (aaf), Arizona, USA
Distance from station: SSW 77mi, 124km
Updated: 06/23/2018 6:58pm
Clear
Clear
 Wind from SW
Wind: SW 20 mph , 31 km/h, Gust: 25 mph , 41 km/h
Temperature: 100°F , 38°C
Dew Point: 46°F , 8°C
Humidity: 16%
Barometer: 29.66 inHg , 1004.4 hPa
Clouds: Clear
Visibility: 10 miles , 16 km
2018/06/24 01:58 KGXF 240158Z AUTO 23017G22KT 10SM CLR 38/08 A2966 RMK AO2 SLP029 T03820080
 
KP08 - Coolidge Muni, Arizona, USA
Distance from station: SSE 77mi, 124km
Updated: 03/05/2018 2:05pm
NOT Current
Clear
Clear
 Wind from varies
Wind: varies 6 mph , 9 km/h, Gust: 14 mph , 22 km/h
Temperature: 68°F , 20°C
Dew Point: 7°F , -14°C
Humidity: 9%
Barometer: 30.07 inHg , 1018.3 hPa
Clouds: Clear
Visibility: 10 miles , 16 km
2018/03/05 21:05 KP08 052105Z AUTO VRB05G12KT 10SM CLR 20/M14 A3007 RMK AO2
KFLG - Flagstaff, Arizona, USA
Distance from station: NNE 91mi, 146km
Updated: 06/23/2018 6:57pm
Clear
Clear
 Wind from SW
Wind: SW 13 mph , 20 km/h, Gust: 21 mph , 33 km/h
Temperature: 77°F , 25°C
Dew Point: 28°F , -2°C
Humidity: 17%
Barometer: 30.12 inHg , 1020 hPa
Clouds: Clear
Visibility: 10 miles , 16 km
2018/06/24 01:57 KFLG 240157Z 23011G18KT 10SM CLR 25/M02 A3012 RMK AO2 PK WND 24026/0102 SLP085 T02501017
 
KCMR - Williams Clark, Arizona, USA
Distance from station: N 98mi, 158km
Updated: 06/23/2018 7:35pm
Clear
Clear
 Wind from SW
Wind: SW 12 mph , 19 km/h, Gust: 18 mph , 30 km/h
Temperature: 77°F , 25°C
Dew Point: 23°F , -5°C
Humidity: 13%
Barometer: 30.10 inHg , 1019.3 hPa
Clouds: Clear
Visibility: 10 miles , 16 km
2018/06/24 02:35 KCMR 240235Z AUTO 22010G16KT 10SM CLR 25/M05 A3010 RMK AO2